Marble Canyon, AZ (86036)

2:13 PM MST on July 25, 2014 (GMT -0700)
Page Arizona (KAZPAGE1) Elev 4172 ft | 36.90 °N, 111.47 °W | Change Station

Current weather conditions updated 1 second ago

Mostly Cloudy
Mostly Cloudy
93.6 °F
Feels Like 90 °F
N
4.0
Wind Variable Wind from NNE
Gusts 8.0 mph

Today is forecast to be Cooler than yesterday.

Today
High -- | Low -- °F
--% Chance of Precip.
Yesterday
High -- | Low -- °F
Precip. -- in
5:26 AM 7:39 PM
Waning Crescent, 1% visible
Pressure 29.86 in
Visibility 10.0 miles
Clouds Few 7500 ft
Scattered Clouds 10000 ft
Mostly Cloudy 12000 ft
Heat Index 90 °F
Dew Point 48 °F
Humidity 21%
Rainfall 0.00 in
Snow Depth Not available.
UV 6 out of 12
Pollen 5.50 out of 12
Air Quality Not available.
Flu Activity Not available.
METAR KPGA 252053Z AUTO 01006KT 10SM VCTS FEW075 SCT100 BKN120 33/09 A3010 RMK AO2 LTG DSNT NE AND E RAB1954E03 TSE23 SLP111 P0000 60000 T03330089 51006

More Conditions Fewer Conditions

Pressure 29.86 in
Visibility 10.0 miles
Clouds Few 7500 ft
Scattered Clouds 10000 ft
Mostly Cloudy 12000 ft
Heat Index 90 °F
Dew Point 48 °F
Humidity 21%
Rainfall 0.00 in
Snow Depth Not available.
UV 6 out of 12
Pollen 5.50 out of 12
Air Quality Not available.
Flu Activity Not available.
METAR KPGA 252053Z AUTO 01006KT 10SM VCTS FEW075 SCT100 BKN120 33/09 A3010 RMK AO2 LTG DSNT NE AND E RAB1954E03 TSE23 SLP111 P0000 60000 T03330089 51006

More Conditions Fewer Conditions

10-Day Weather Forecast

Almanac

Astronomy

Jul. 25, 2014 Rise Set
Actual Time 5:26 AM MST 7:39 PM MST
Civil Twilight 4:57 AM MST 8:08 PM MST
Nautical Twilight 4:21 AM MST 8:43 PM MST
Astronomical Twilight 3:42 AM MST 9:22 PM MST
Moon 4:28 AM MST 6:39 PM MST
Length of Visible Light 15h 10m
Length of Day
14h 12m
Tomorrow will be 1m 34s shorter.
Waning Crescent, 1% of the Moon is Illuminated
Today
Waning Crescent
Jul 26
New
Aug 3
First Quarter
Aug 10
Full
Aug 17
Last Quarter

Today's Extremes

State Highs State Lows

Community

WunderPhotos

Upload Photos

1,737,402 photos uploaded!

Nearby

Snow Depth

Station Depth Elevation
Workman Creek 1 in 6900 ft

Earthquake Activity

City Distance Mag. Time & Date
No recent earthquake activity has been reported nearby.
Minimum magnitude displayed is 2.5.

Coastal Water Temperatures

Place Temperature
No Stations Reporting

Nearby Weather Stations

Station Location Temp. Heat Index Dew Point Humidity Wind Precip. Elev Updated Type
Page Arizona, Page, AZ 93.6 °F 90 °F 48 °F 21% NNE  at  4.0 mph 0.00 in / hr 4172 ft 2:13 PM MST Rapid Fire
RAWS PARIA POINT AZ, Page, AZ 81 °F 80 °F 51 °F 35% NW  at  5 mph 0.03 in / hr 7234 ft 1:00 PM MST MADIS

Show More Stations Show Fewer Stations